createdAt,value
2016-10-12T00:00:46.982Z,0
2016-10-12T00:01:46.968Z,0
2016-10-12T00:02:47.210Z,0
2016-10-12T00:03:46.565Z,0
2016-10-12T00:04:46.535Z,0
2016-10-12T00:05:47.094Z,0
2016-10-12T00:06:46.754Z,0
2016-10-12T00:07:46.414Z,0
2016-10-12T00:08:46.677Z,0
2016-10-12T00:09:46.637Z,0
2016-10-12T00:10:46.903Z,0
2016-10-12T00:11:46.856Z,0
2016-10-12T00:12:46.828Z,0
2016-10-12T00:13:46.169Z,0
2016-10-12T00:14:46.754Z,0
2016-10-12T00:15:46.404Z,0
2016-10-12T00:16:46.665Z,0
2016-10-12T00:17:46.628Z,0
2016-10-12T00:18:46.287Z,0
2016-10-12T00:19:46.251Z,0
2016-10-12T00:20:46.507Z,0
2016-10-12T00:21:45.866Z,0
2016-10-12T00:22:46.128Z,0
2016-10-12T00:23:46.090Z,0
2016-10-12T00:24:46.349Z,0
2016-10-12T00:25:46.309Z,0
2016-10-12T00:26:46.275Z,0
2016-10-12T00:27:46.254Z,0
2016-10-12T00:28:45.897Z,0
2016-10-12T00:29:46.162Z,0
2016-10-12T00:30:45.829Z,0
2016-10-12T00:31:45.775Z,0
2016-10-12T00:32:46.044Z,0
2016-10-12T00:33:45.707Z,0
2016-10-12T00:34:45.668Z,0
2016-10-12T00:35:45.622Z,0
2016-10-12T00:36:45.579Z,0
2016-10-12T00:37:45.543Z,0
2016-10-12T00:38:45.803Z,0
2016-10-12T00:39:45.467Z,0
2016-10-12T00:40:45.432Z,0
2016-10-12T00:41:45.687Z,0
2016-10-12T00:42:45.651Z,0
2016-10-12T00:43:45.612Z,0
2016-10-12T00:44:45.574Z,0
2016-10-12T00:45:45.530Z,0
2016-10-12T00:46:45.191Z,0
2016-10-12T00:47:45.146Z,0
2016-10-12T00:48:45.419Z,0
2016-10-12T00:49:45.373Z,0
2016-10-12T00:50:45.338Z,0
2016-10-12T00:51:44.998Z,0
2016-10-12T00:52:45.262Z,0
2016-10-12T00:53:44.922Z,0
2016-10-12T00:54:44.579Z,0
2016-10-12T00:55:44.539Z,0
2016-10-12T00:56:45.108Z,0
2016-10-12T00:57:44.760Z,0
2016-10-12T00:58:45.024Z,0
2016-10-12T00:59:45.006Z,0
2016-10-12T01:00:44.641Z,0
2016-10-12T01:01:44.607Z,0
2016-10-12T01:02:44.864Z,0
2016-10-12T01:03:44.526Z,0
2016-10-12T01:04:44.493Z,0
2016-10-12T01:05:44.146Z,0
2016-10-12T01:06:44.112Z,0
2016-10-12T01:07:44.678Z,0
2016-10-12T01:08:44.641Z,0
2016-10-12T01:09:44.292Z,0
2016-10-12T01:10:44.553Z,0
2016-10-12T01:11:44.510Z,0
2016-10-12T01:12:44.175Z,0
2016-10-12T01:13:44.432Z,0
2016-10-12T01:14:44.408Z,0
2016-10-12T01:15:44.368Z,0
2016-10-12T01:16:44.321Z,0
2016-10-12T01:17:44.278Z,0
2016-10-12T01:18:43.941Z,0
2016-10-12T01:19:43.902Z,0
2016-10-12T01:20:43.866Z,0
2016-10-12T01:21:43.528Z,0
2016-10-12T01:22:44.093Z,0
2016-10-12T01:23:44.052Z,0
2016-10-12T01:24:43.404Z,0
2016-10-12T01:25:43.970Z,0
2016-10-12T01:26:43.641Z,0
2016-10-12T01:27:43.889Z,0
2016-10-12T01:28:43.858Z,0
2016-10-12T01:29:43.510Z,0
2016-10-12T01:30:43.484Z,0
2016-10-12T01:31:43.738Z,0
2016-10-12T01:32:43.690Z,0
2016-10-12T01:33:43.351Z,0
2016-10-12T01:34:43.625Z,0
2016-10-12T01:35:43.572Z,0
2016-10-12T01:36:42.932Z,0
2016-10-12T01:37:43.496Z,0
2016-10-12T01:38:43.469Z,0
2016-10-12T01:39:43.140Z,0
2016-10-12T01:40:43.079Z,0
2016-10-12T01:41:43.345Z,0
2016-10-12T01:42:43.005Z,0
2016-10-12T01:43:42.964Z,0
2016-10-12T01:44:42.931Z,0
2016-10-12T01:45:43.190Z,0
2016-10-12T01:46:43.144Z,0
2016-10-12T01:47:43.108Z,0
2016-10-12T01:48:43.073Z,0
2016-10-12T01:49:43.033Z,0
2016-10-12T01:50:43.016Z,0
2016-10-12T01:51:42.955Z,0
2016-10-12T01:52:42.617Z,0
2016-10-12T01:53:42.888Z,0
2016-10-12T01:54:42.539Z,0
2016-10-12T01:55:42.194Z,0
2016-10-12T01:56:42.755Z,0
2016-10-12T01:57:42.415Z,0
2016-10-12T01:58:42.676Z,0
2016-10-12T01:59:42.633Z,0
2016-10-12T02:00:42.296Z,0
2016-10-12T02:01:42.560Z,0
2016-10-12T02:02:42.517Z,0
2016-10-12T02:03:42.484Z,0
2016-10-12T02:04:42.137Z,0
2016-10-12T02:05:42.400Z,0
2016-10-12T02:06:42.065Z,0
2016-10-12T02:07:42.337Z,0
2016-10-12T02:08:42.285Z,0
2016-10-12T02:09:42.246Z,0
2016-10-12T02:10:42.201Z,0
2016-10-12T02:11:41.565Z,0
2016-10-12T02:12:42.140Z,0
2016-10-12T02:13:41.800Z,0
2016-10-12T02:14:42.050Z,0
2016-10-12T02:15:42.011Z,0
2016-10-12T02:16:41.965Z,0
2016-10-12T02:17:41.944Z,0
2016-10-12T02:18:41.888Z,0
2016-10-12T02:19:41.552Z,0
2016-10-12T02:20:41.206Z,0
2016-10-12T02:21:41.774Z,0
2016-10-12T02:22:41.435Z,0
2016-10-12T02:23:41.693Z,0
2016-10-12T02:24:41.376Z,0
2016-10-12T02:25:41.315Z,0
2016-10-12T02:26:41.281Z,0
2016-10-12T02:27:41.547Z,0
2016-10-12T02:28:41.504Z,0
2016-10-12T02:29:41.158Z,0
2016-10-12T02:30:41.117Z,0
2016-10-12T02:31:41.375Z,0
2016-10-12T02:32:41.345Z,0
2016-10-12T02:33:41.008Z,0
2016-10-12T02:34:41.264Z,0
2016-10-12T02:35:41.226Z,0
2016-10-12T02:36:40.880Z,0
2016-10-12T02:37:40.860Z,0
2016-10-12T02:38:40.832Z,0
2016-10-12T02:39:41.067Z,0
2016-10-12T02:40:40.720Z,0
2016-10-12T02:41:40.992Z,0
2016-10-12T02:42:40.652Z,0
2016-10-12T02:43:40.616Z,0
2016-10-12T02:44:40.865Z,0
2016-10-12T02:45:40.542Z,0
2016-10-12T02:46:40.490Z,0
2016-10-12T02:47:40.750Z,0
2016-10-12T02:48:40.712Z,0
2016-10-12T02:49:40.381Z,0
2016-10-12T02:50:40.331Z,0
2016-10-12T02:51:39.995Z,0
2016-10-12T02:52:40.557Z,0
2016-10-12T02:53:40.517Z,0
2016-10-12T02:54:40.176Z,0
2016-10-12T02:55:40.441Z,0
2016-10-12T02:56:40.408Z,0
2016-10-12T02:57:40.059Z,0
2016-10-12T02:58:40.320Z,0
2016-10-12T02:59:39.984Z,0
2016-10-12T03:00:40.241Z,0
2016-10-12T03:01:39.903Z,0
2016-10-12T03:02:40.167Z,0
2016-10-12T03:03:40.131Z,0
2016-10-12T03:04:39.784Z,0
2016-10-12T03:05:39.149Z,0
2016-10-12T03:06:40.001Z,0
2016-10-12T03:07:39.982Z,0
2016-10-12T03:08:39.624Z,0
2016-10-12T03:09:39.888Z,0
2016-10-12T03:10:39.544Z,0
2016-10-12T03:11:39.807Z,0
2016-10-12T03:12:39.475Z,0
2016-10-12T03:13:39.729Z,0
2016-10-12T03:14:39.691Z,0
2016-10-12T03:15:39.660Z,0
2016-10-12T03:16:39.616Z,0
2016-10-12T03:17:39.275Z,0
2016-10-12T03:18:39.532Z,0
2016-10-12T03:19:39.208Z,0
2016-10-12T03:20:39.165Z,0
2016-10-12T03:21:39.420Z,0
2016-10-12T03:22:39.394Z,0
2016-10-12T03:23:39.036Z,0
2016-10-12T03:24:39.304Z,0
2016-10-12T03:25:39.261Z,0
2016-10-12T03:26:38.923Z,0
2016-10-12T03:27:39.201Z,0
2016-10-12T03:28:39.149Z,0
2016-10-12T03:29:39.108Z,0
2016-10-12T03:30:39.061Z,0
2016-10-12T03:31:39.037Z,0
2016-10-12T03:32:38.983Z,0
2016-10-12T03:33:38.950Z,0
2016-10-12T03:34:38.601Z,0
2016-10-12T03:35:38.565Z,0
2016-10-12T03:36:38.827Z,0
2016-10-12T03:37:38.791Z,0
2016-10-12T03:38:38.454Z,0
2016-10-12T03:39:38.712Z,0
2016-10-12T03:40:38.673Z,0
2016-10-12T03:41:38.328Z,0
2016-10-12T03:42:38.289Z,0
2016-10-12T03:43:38.552Z,0
2016-10-12T03:44:38.526Z,0
2016-10-12T03:45:38.473Z,0
2016-10-12T03:46:37.833Z,0
2016-10-12T03:47:38.091Z,0
2016-10-12T03:48:38.369Z,0
2016-10-12T03:49:38.013Z,0
2016-10-12T03:50:38.284Z,0
2016-10-12T03:51:37.934Z,0
2016-10-12T03:52:38.198Z,0
2016-10-12T03:53:38.167Z,0
2016-10-12T03:54:37.824Z,0
2016-10-12T03:55:38.096Z,0
2016-10-12T03:56:38.041Z,0
2016-10-12T03:57:37.396Z,0
2016-10-12T03:58:37.973Z,0
2016-10-12T03:59:37.622Z,0
2016-10-12T04:00:37.892Z,0
2016-10-12T04:01:37.553Z,0
2016-10-12T04:02:37.511Z,0
2016-10-12T04:03:37.464Z,0
2016-10-12T04:04:37.443Z,0
2016-10-12T04:05:37.392Z,0
2016-10-12T04:06:37.345Z,0
2016-10-12T04:07:37.615Z,0
2016-10-12T04:08:37.580Z,0
2016-10-12T04:09:37.225Z,0
2016-10-12T04:10:37.190Z,0
2016-10-12T04:11:37.455Z,0
2016-10-12T04:12:37.423Z,0
2016-10-12T04:13:37.070Z,0
2016-10-12T04:14:37.028Z,0
2016-10-12T04:15:37.298Z,0
2016-10-12T04:16:37.259Z,0
2016-10-12T04:17:37.220Z,0
2016-10-12T04:18:36.869Z,0
2016-10-12T04:19:36.535Z,0
2016-10-12T04:20:36.491Z,0
2016-10-12T04:21:36.758Z,0
2016-10-12T04:22:37.023Z,0
2016-10-12T04:23:36.672Z,0
2016-10-12T04:24:36.935Z,0
2016-10-12T04:25:36.295Z,0
2016-10-12T04:26:36.558Z,0
2016-10-12T04:27:36.821Z,0
2016-10-12T04:28:36.472Z,0
2016-10-12T04:29:36.739Z,0
2016-10-12T04:30:36.401Z,0
2016-10-12T04:31:36.663Z,0
2016-10-12T04:32:36.623Z,0
2016-10-12T04:33:36.590Z,0
2016-10-12T04:34:36.543Z,0
2016-10-12T04:35:36.199Z,0
2016-10-12T04:36:36.166Z,0
2016-10-12T04:37:36.434Z,0
2016-10-12T04:38:36.383Z,0
2016-10-12T04:39:36.060Z,0
2016-10-12T04:40:36.006Z,0
2016-10-12T04:41:36.267Z,0
2016-10-12T04:42:35.928Z,0
2016-10-12T04:43:36.198Z,0
2016-10-12T04:44:35.851Z,0
2016-10-12T04:45:35.813Z,0
2016-10-12T04:46:35.768Z,0
2016-10-12T04:47:36.028Z,0
2016-10-12T04:48:35.987Z,0
2016-10-12T04:49:35.956Z,0
2016-10-12T04:50:35.912Z,0
2016-10-12T04:51:35.872Z,0
2016-10-12T04:52:35.836Z,0
2016-10-12T04:53:35.487Z,0
2016-10-12T04:54:35.152Z,0
2016-10-12T04:55:35.407Z,0
2016-10-12T04:56:35.679Z,0
2016-10-12T04:57:35.635Z,0
2016-10-12T04:58:34.988Z,0
2016-10-12T04:59:35.555Z,0
2016-10-12T05:00:34.910Z,0
2016-10-12T05:01:35.171Z,0
2016-10-12T05:02:35.427Z,0
2016-10-12T05:03:35.396Z,0
2016-10-12T05:04:35.358Z,0
2016-10-12T05:05:34.407Z,0
2016-10-12T05:06:35.276Z,0
2016-10-12T05:07:34.933Z,0
2016-10-12T05:08:35.198Z,0
2016-10-12T05:09:35.155Z,0
2016-10-12T05:10:34.809Z,0
2016-10-12T05:11:35.078Z,0
2016-10-12T05:12:35.037Z,0
2016-10-12T05:13:34.688Z,0
2016-10-12T05:14:34.652Z,0
2016-10-12T05:15:34.613Z,0
2016-10-12T05:16:34.875Z,0
2016-10-12T05:17:34.828Z,0
2016-10-12T05:18:34.492Z,0
2016-10-12T05:19:34.758Z,0
2016-10-12T05:20:34.411Z,0
2016-10-12T05:21:34.366Z,0
2016-10-12T05:22:34.025Z,0
2016-10-12T05:23:34.592Z,0
2016-10-12T05:24:34.252Z,0
2016-10-12T05:25:34.522Z,0
2016-10-12T05:26:33.862Z,0
2016-10-12T05:27:34.128Z,0
2016-10-12T05:28:34.087Z,0
2016-10-12T05:29:34.054Z,0
2016-10-12T05:30:34.008Z,5
2016-10-12T05:31:33.966Z,5
2016-10-12T05:32:33.921Z,5
2016-10-12T05:33:33.905Z,5
2016-10-12T05:34:34.152Z,5
2016-10-12T05:35:33.811Z,5
2016-10-12T05:36:33.763Z,5
2016-10-12T05:37:33.423Z,10
2016-10-12T05:38:33.689Z,10
2016-10-12T05:39:33.955Z,10
2016-10-12T05:40:33.606Z,10
2016-10-12T05:41:33.266Z,10
2016-10-12T05:42:33.523Z,15
2016-10-12T05:43:33.785Z,15
2016-10-12T05:44:33.451Z,15
2016-10-12T05:45:33.411Z,15
2016-10-12T05:46:33.363Z,20
2016-10-12T05:47:33.624Z,20
2016-10-12T05:48:33.278Z,20
2016-10-12T05:49:33.545Z,20
2016-10-12T05:50:33.503Z,25
2016-10-12T05:51:33.470Z,25
2016-10-12T05:52:33.151Z,30
2016-10-12T05:53:33.382Z,30
2016-10-12T05:54:33.361Z,30
2016-10-12T05:55:33.002Z,35
2016-10-12T05:56:32.967Z,40
2016-10-12T05:57:32.619Z,40
2016-10-12T05:58:32.882Z,40
2016-10-12T05:59:33.138Z,45
2016-10-12T06:00:32.213Z,50
2016-10-12T06:01:33.056Z,55
2016-10-12T06:02:33.025Z,60
2016-10-12T06:03:32.688Z,60
2016-10-12T06:04:32.934Z,65
2016-10-12T06:05:32.596Z,70
2016-10-12T06:06:32.854Z,75
2016-10-12T06:07:32.215Z,85
2016-10-12T06:08:32.475Z,90
2016-10-12T06:09:32.436Z,90
2016-10-12T06:10:32.392Z,90
2016-10-12T06:11:32.353Z,100
2016-10-12T06:12:31.712Z,105
2016-10-12T06:13:32.586Z,115
2016-10-12T06:14:32.536Z,125
2016-10-12T06:15:32.191Z,130
2016-10-12T06:16:32.459Z,135
2016-10-12T06:17:32.416Z,140
2016-10-12T06:18:32.095Z,150
2016-10-12T06:19:32.340Z,150
2016-10-12T06:20:31.996Z,155
2016-10-12T06:21:32.256Z,160
2016-10-12T06:22:31.919Z,165
2016-10-12T06:23:32.178Z,175
2016-10-12T06:24:31.836Z,185
2016-10-12T06:25:31.494Z,195
2016-10-12T06:26:31.455Z,215
2016-10-12T06:27:31.418Z,215
2016-10-12T06:28:31.988Z,230
2016-10-12T06:29:31.641Z,240
2016-10-12T06:30:31.905Z,245
2016-10-12T06:31:31.560Z,250
2016-10-12T06:32:31.839Z,255
2016-10-12T06:33:31.489Z,260
2016-10-12T06:34:31.468Z,280
2016-10-12T06:35:31.414Z,295
2016-10-12T06:36:31.679Z,315
2016-10-12T06:37:31.332Z,345
2016-10-12T06:38:31.298Z,350
2016-10-12T06:39:31.556Z,365
2016-10-12T06:40:31.524Z,375
2016-10-12T06:41:30.899Z,395
2016-10-12T06:42:31.446Z,410
2016-10-12T06:43:30.512Z,425
2016-10-12T06:44:31.380Z,425
2016-10-12T06:45:31.341Z,445
2016-10-12T06:46:31.016Z,460
2016-10-12T06:47:30.666Z,475
2016-10-12T06:48:30.936Z,480
2016-10-12T06:49:30.595Z,490
2016-10-12T06:50:30.868Z,510
2016-10-12T06:51:31.127Z,525
2016-10-12T06:52:31.088Z,530
2016-10-12T06:53:31.057Z,550
2016-10-12T06:54:30.417Z,565
2016-10-12T06:55:31.000Z,585
2016-10-12T06:56:30.349Z,590
2016-10-12T06:57:30.622Z,600
2016-10-12T06:58:30.275Z,600
2016-10-12T06:59:30.245Z,600
2016-10-12T07:00:30.214Z,605
2016-10-12T07:01:30.489Z,615
2016-10-12T07:02:30.457Z,630
2016-10-12T07:03:30.717Z,620
2016-10-12T07:04:30.689Z,625
2016-10-12T07:05:30.344Z,645
2016-10-12T07:06:30.613Z,665
2016-10-12T07:07:30.585Z,675
2016-10-12T07:08:30.273Z,700
2016-10-12T07:09:30.516Z,685
2016-10-12T07:10:30.481Z,690
2016-10-12T07:11:30.156Z,690
2016-10-12T07:12:30.118Z,700
2016-10-12T07:13:29.783Z,715
2016-10-12T07:14:30.359Z,740
2016-10-12T07:15:30.329Z,760
2016-10-12T07:16:29.692Z,770
2016-10-12T07:17:30.265Z,790
2016-10-12T07:18:29.929Z,795
2016-10-12T07:19:30.198Z,795
2016-10-12T07:20:30.168Z,805
2016-10-12T07:21:30.144Z,815
2016-10-12T07:22:30.105Z,820
2016-10-12T07:23:29.992Z,830
2016-10-12T07:24:29.446Z,860
2016-10-12T07:25:29.711Z,895
2016-10-12T07:26:29.699Z,865
2016-10-12T07:27:29.670Z,855
2016-10-12T07:28:29.634Z,835
2016-10-12T07:29:29.612Z,890
2016-10-12T07:30:29.882Z,895
2016-10-12T07:31:29.836Z,890
2016-10-12T07:32:29.225Z,885
2016-10-12T07:33:29.483Z,905
2016-10-12T07:34:29.467Z,885
2016-10-12T07:35:29.427Z,945
2016-10-12T07:36:29.408Z,960
2016-10-12T07:37:29.361Z,920
2016-10-12T07:38:29.657Z,885
2016-10-12T07:39:29.603Z,770
2016-10-12T07:40:29.578Z,740
2016-10-12T07:41:29.555Z,755
2016-10-12T07:42:29.520Z,785
2016-10-12T07:43:29.494Z,780
2016-10-12T07:44:29.484Z,665
2016-10-12T07:45:29.432Z,680
2016-10-12T07:46:29.530Z,795
2016-10-12T07:47:29.077Z,720
2016-10-12T07:48:29.352Z,870
2016-10-12T07:49:29.347Z,920
2016-10-12T07:50:29.292Z,920
2016-10-12T07:51:28.659Z,915
2016-10-12T07:52:28.625Z,960
2016-10-12T07:53:28.904Z,885
2016-10-12T07:54:29.203Z,980
2016-10-12T07:55:29.149Z,975
2016-10-12T07:56:29.130Z,935
2016-10-12T07:57:28.787Z,890
2016-10-12T07:58:29.066Z,1210
2016-10-12T07:59:29.037Z,1215
2016-10-12T08:00:28.421Z,1205
2016-10-12T08:02:28.658Z,1235
2016-10-12T08:03:28.319Z,1210
2016-10-12T08:04:28.605Z,1260
2016-10-12T08:05:28.560Z,1280
2016-10-12T08:06:28.831Z,1295
2016-10-12T08:07:28.813Z,1325
2016-10-12T08:08:28.780Z,1290
2016-10-12T08:09:28.762Z,1305
2016-10-12T08:10:28.416Z,1300
2016-10-12T08:11:28.703Z,1365
2016-10-12T08:12:28.365Z,1360
2016-10-12T08:13:28.639Z,1365
2016-10-12T08:14:28.000Z,1330
2016-10-12T08:15:28.279Z,1410
2016-10-12T08:16:28.555Z,1395
2016-10-12T08:17:28.525Z,1405
2016-10-12T08:18:28.493Z,1400
2016-10-12T08:19:27.858Z,1400
2016-10-12T08:20:28.133Z,1345
2016-10-12T08:21:28.413Z,1390
2016-10-12T08:22:28.385Z,1415
2016-10-12T08:23:28.053Z,1415
2016-10-12T08:24:27.730Z,1500
2016-10-12T08:25:28.301Z,1475
2016-10-12T08:26:28.285Z,1485
2016-10-12T08:27:28.270Z,1485
2016-10-12T08:28:28.218Z,1485
2016-10-12T08:29:27.600Z,1495
2016-10-12T08:30:27.867Z,1445
2016-10-12T08:31:27.231Z,1475
2016-10-12T08:32:27.815Z,1470
2016-10-12T08:33:27.785Z,1495
2016-10-12T08:34:27.756Z,1530
2016-10-12T08:35:27.727Z,1550
2016-10-12T08:36:27.705Z,1580
2016-10-12T08:37:27.683Z,1580
2016-10-12T08:38:27.647Z,1605
2016-10-12T08:39:27.635Z,1610
2016-10-12T08:40:27.902Z,1555
2016-10-12T08:41:27.901Z,1585
2016-10-12T08:42:27.845Z,1585
2016-10-12T08:43:27.516Z,1575
2016-10-12T08:44:27.488Z,1600
2016-10-12T08:45:27.769Z,1635
2016-10-12T08:46:27.742Z,1645
2016-10-12T08:47:27.724Z,1610
2016-10-12T08:48:27.095Z,1615
2016-10-12T08:49:27.660Z,1580
2016-10-12T08:50:27.332Z,1600
2016-10-12T08:51:27.006Z,1575
2016-10-12T08:52:27.297Z,1600
2016-10-12T08:53:27.562Z,1655
2016-10-12T08:54:27.543Z,1660
2016-10-12T08:55:27.513Z,1630
2016-10-12T08:56:27.490Z,1555
2016-10-12T08:57:27.462Z,1565
2016-10-12T08:58:26.564Z,1595
2016-10-12T08:59:27.116Z,1580
2016-10-12T09:00:27.087Z,1575
2016-10-12T09:01:27.067Z,1605
2016-10-12T09:02:27.036Z,1615
2016-10-12T09:03:27.009Z,1650
2016-10-12T09:04:26.991Z,1670
2016-10-12T09:05:27.271Z,1680
2016-10-12T09:06:26.963Z,1660
2016-10-12T09:07:26.602Z,1640
2016-10-12T09:08:27.196Z,1645
2016-10-12T09:09:27.160Z,1660
2016-10-12T09:10:26.841Z,1615
2016-10-12T09:11:27.121Z,1635
2016-10-12T09:12:27.092Z,1600
2016-10-12T09:13:27.070Z,1620
2016-10-12T09:14:26.751Z,1690
2016-10-12T09:15:26.715Z,1715
2016-10-12T09:16:26.698Z,1785
2016-10-12T09:17:26.983Z,1735
2016-10-12T09:18:26.646Z,1670
2016-10-12T09:19:26.329Z,1360
2016-10-12T09:20:26.913Z,1140
2016-10-12T09:21:26.882Z,1165
2016-10-12T09:22:26.558Z,1100
2016-10-12T09:23:26.231Z,1210
2016-10-12T09:24:26.812Z,1225
2016-10-12T09:25:26.186Z,1255
2016-10-12T09:26:26.168Z,1235
2016-10-12T09:27:26.137Z,1195
2016-10-12T09:28:26.728Z,1200
2016-10-12T09:29:26.396Z,1185
2016-10-12T09:30:26.366Z,1170
2016-10-12T09:31:26.657Z,1190
2016-10-12T09:32:26.324Z,1230
2016-10-12T09:33:26.303Z,1220
2016-10-12T09:34:26.582Z,1210
2016-10-12T09:35:26.262Z,1155
2016-10-12T09:36:26.543Z,1170
2016-10-12T09:37:26.214Z,1160
2016-10-12T09:38:26.193Z,1060
2016-10-12T09:39:25.862Z,1135
2016-10-12T09:40:25.840Z,1115
2016-10-12T09:41:25.822Z,1080
2016-10-12T09:42:26.096Z,1085
2016-10-12T09:43:26.376Z,1155
2016-10-12T09:44:26.346Z,1135
2016-10-12T09:45:26.020Z,1195
2016-10-12T09:46:26.315Z,1155
2016-10-12T09:47:25.980Z,1175
2016-10-12T09:48:26.262Z,1515
2016-10-12T09:49:26.236Z,1845
2016-10-12T09:50:26.211Z,1705
2016-10-12T09:51:25.886Z,1635
2016-10-12T09:52:25.867Z,1565
2016-10-12T09:53:26.139Z,1485
2016-10-12T09:54:25.814Z,1620
2016-10-12T09:55:26.100Z,1560
2016-10-12T09:56:25.769Z,1480
2016-10-12T09:57:26.048Z,1470
2016-10-12T09:58:26.025Z,1480
2016-10-12T09:59:25.997Z,1490
2016-10-12T10:00:25.975Z,1535
2016-10-12T10:01:25.651Z,1485
2016-10-12T10:02:25.622Z,1530
2016-10-12T10:03:25.597Z,1535
2016-10-12T10:04:25.888Z,1595
2016-10-12T10:05:25.552Z,1625
2016-10-12T10:06:25.826Z,1600
2016-10-12T10:07:25.817Z,1610
2016-10-12T10:08:24.883Z,1480
2016-10-12T10:09:25.763Z,1395
2016-10-12T10:10:25.438Z,1550
2016-10-12T10:11:25.114Z,615
2016-10-12T10:12:25.688Z,535
2016-10-12T10:13:25.666Z,1965
2016-10-12T10:14:25.037Z,1760
2016-10-12T10:15:25.312Z,1765
2016-10-12T10:16:24.989Z,1860
2016-10-12T10:17:25.265Z,1820
2016-10-12T10:18:25.237Z,1605
2016-10-12T10:19:25.527Z,575
2016-10-12T10:20:25.207Z,505
2016-10-12T10:21:25.176Z,510
2016-10-12T10:22:25.152Z,910
2016-10-12T10:23:25.421Z,1585
2016-10-12T10:24:25.090Z,1800
2016-10-12T10:25:25.067Z,1760
2016-10-12T10:26:24.741Z,1775
2016-10-12T10:27:25.022Z,1735
2016-10-12T10:28:24.686Z,670
2016-10-12T10:29:24.965Z,1700
2016-10-12T10:30:24.951Z,495
2016-10-12T10:31:24.923Z,865
2016-10-12T10:32:25.192Z,830
2016-10-12T10:33:24.863Z,910
2016-10-12T10:34:24.843Z,895
2016-10-12T10:35:25.122Z,780
2016-10-12T10:36:24.785Z,655
2016-10-12T10:37:24.757Z,975
2016-10-12T10:38:25.034Z,680
2016-10-12T10:39:25.013Z,675
2016-10-12T10:40:24.694Z,605
2016-10-12T10:41:24.952Z,750
2016-10-12T10:42:24.933Z,880
2016-10-12T10:43:24.608Z,880
2016-10-12T10:44:24.580Z,875
2016-10-12T10:45:24.549Z,855
2016-10-12T10:46:24.831Z,850
2016-10-12T10:47:24.795Z,840
2016-10-12T10:48:24.477Z,880
2016-10-12T10:49:24.751Z,965
2016-10-12T10:50:24.722Z,1115
2016-10-12T10:51:24.407Z,1300
2016-10-12T10:52:24.676Z,1600
2016-10-12T10:53:23.760Z,785
2016-10-12T10:54:24.624Z,1740
2016-10-12T10:55:24.606Z,885
2016-10-12T10:56:24.563Z,415
2016-10-12T10:57:23.939Z,450
2016-10-12T10:58:24.217Z,820
2016-10-12T10:59:24.507Z,350
2016-10-12T11:00:24.164Z,305
2016-10-12T11:01:23.836Z,285
2016-10-12T11:02:24.106Z,300
2016-10-12T11:03:24.386Z,310
2016-10-12T11:04:24.058Z,595
2016-10-12T11:05:23.724Z,635
2016-10-12T11:06:24.316Z,625
2016-10-12T11:07:23.975Z,640
2016-10-12T11:08:23.951Z,640
2016-10-12T11:09:23.613Z,610
2016-10-12T11:10:23.885Z,605
2016-10-12T11:11:23.864Z,605
2016-10-12T11:12:24.133Z,595
2016-10-12T11:13:23.831Z,370
2016-10-12T11:14:24.074Z,440
2016-10-12T11:15:23.439Z,530
2016-10-12T11:16:24.037Z,390
2016-10-12T11:17:23.679Z,495
2016-10-12T11:18:23.349Z,1005
2016-10-12T11:19:23.325Z,1640
2016-10-12T11:20:23.896Z,1670
2016-10-12T11:21:23.565Z,1145
2016-10-12T11:22:23.837Z,605
2016-10-12T11:23:23.805Z,570
2016-10-12T11:24:23.480Z,510
2016-10-12T11:25:23.747Z,400
2016-10-12T11:26:23.713Z,390
2016-10-12T11:27:23.390Z,455
2016-10-12T11:28:23.661Z,440
2016-10-12T11:29:23.325Z,430
2016-10-12T11:30:23.300Z,420
2016-10-12T11:31:23.566Z,395
2016-10-12T11:32:23.535Z,340
2016-10-12T11:33:22.907Z,390
2016-10-12T11:34:23.170Z,340
2016-10-12T11:35:23.146Z,390
2016-10-12T11:36:23.413Z,430
2016-10-12T11:37:22.778Z,420
2016-10-12T11:38:23.357Z,440
2016-10-12T11:39:23.017Z,470
2016-10-12T11:40:23.293Z,495
2016-10-12T11:41:23.252Z,460
2016-10-12T11:42:22.922Z,445
2016-10-12T11:43:22.887Z,430
2016-10-12T11:44:23.165Z,395
2016-10-12T11:45:23.130Z,375
2016-10-12T11:46:22.801Z,415
2016-10-12T11:47:22.770Z,430
2016-10-12T11:48:22.432Z,390
2016-10-12T11:49:22.709Z,390
2016-10-12T11:50:22.669Z,385
2016-10-12T11:51:22.939Z,335
2016-10-12T11:52:22.610Z,290
2016-10-12T11:53:22.868Z,280
2016-10-12T11:54:22.854Z,270
2016-10-12T11:55:22.201Z,265
2016-10-12T11:56:22.769Z,305
2016-10-12T11:57:22.745Z,340
2016-10-12T11:58:22.719Z,360
2016-10-12T11:59:22.379Z,360
2016-10-12T12:00:22.337Z,345
2016-10-12T12:01:22.306Z,340
2016-10-12T12:02:22.576Z,345
2016-10-12T12:03:21.943Z,350
2016-10-12T12:04:22.507Z,365
2016-10-12T12:05:22.482Z,380
2016-10-12T12:06:22.144Z,390
2016-10-12T12:07:22.112Z,345
2016-10-12T12:08:22.075Z,255
2016-10-12T12:09:22.344Z,220
2016-10-12T12:10:21.705Z,180
2016-10-12T12:11:21.981Z,170
2016-10-12T12:12:22.248Z,175
2016-10-12T12:13:21.914Z,190
2016-10-12T12:14:21.881Z,190
2016-10-12T12:15:21.846Z,190
2016-10-12T12:16:21.823Z,195
2016-10-12T12:17:22.086Z,200
2016-10-12T12:18:21.749Z,220
2016-10-12T12:19:21.716Z,240
2016-10-12T12:20:21.984Z,255
2016-10-12T12:21:21.643Z,265
2016-10-12T12:22:21.923Z,285
2016-10-12T12:23:21.584Z,305
2016-10-12T12:24:21.849Z,310
2016-10-12T12:25:21.205Z,320
2016-10-12T12:26:21.784Z,355
2016-10-12T12:27:21.439Z,380
2016-10-12T12:28:21.430Z,370
2016-10-12T12:29:21.389Z,355
2016-10-12T12:30:21.347Z,335
2016-10-12T12:31:21.016Z,315
2016-10-12T12:32:20.993Z,265
2016-10-12T12:33:21.547Z,200
2016-10-12T12:34:21.208Z,175
2016-10-12T12:35:21.475Z,165
2016-10-12T12:36:21.147Z,175
2016-10-12T12:37:21.417Z,190
2016-10-12T12:38:21.080Z,195
2016-10-12T12:39:21.346Z,220
2016-10-12T12:40:21.307Z,250
2016-10-12T12:41:20.977Z,290
2016-10-12T12:42:20.943Z,320
2016-10-12T12:43:20.917Z,325
2016-10-12T12:44:21.171Z,300
2016-10-12T12:45:20.847Z,295
2016-10-12T12:46:20.798Z,260
2016-10-12T12:47:21.067Z,250
2016-10-12T12:48:20.761Z,265
2016-10-12T12:49:20.702Z,260
2016-10-12T12:50:20.376Z,260
2016-10-12T12:51:20.636Z,270
2016-10-12T12:52:20.910Z,275
2016-10-12T12:53:20.872Z,275
2016-10-12T12:54:20.240Z,275
2016-10-12T12:55:20.802Z,275
2016-10-12T12:56:20.465Z,280
2016-10-12T12:57:20.432Z,280
2016-10-12T12:58:20.700Z,275
2016-10-12T12:59:20.675Z,265
2016-10-12T13:00:20.337Z,255
2016-10-12T13:01:19.997Z,240
2016-10-12T13:02:20.566Z,225
2016-10-12T13:03:20.535Z,220
2016-10-12T13:04:19.900Z,210
2016-10-12T13:05:20.463Z,205
2016-10-12T13:06:20.129Z,190
2016-10-12T13:07:20.392Z,185
2016-10-12T13:08:20.371Z,185
2016-10-12T13:09:20.335Z,195
2016-10-12T13:10:20.300Z,190
2016-10-12T13:11:20.282Z,175
2016-10-12T13:12:20.234Z,175
2016-10-12T13:13:19.894Z,180
2016-10-12T13:14:19.867Z,175
2016-10-12T13:15:19.915Z,165
2016-10-12T13:16:19.786Z,160
2016-10-12T13:17:19.769Z,165
2016-10-12T13:18:19.958Z,170
2016-10-12T13:19:19.677Z,175
2016-10-12T13:20:19.648Z,180
2016-10-12T13:21:19.313Z,175
2016-10-12T13:22:19.575Z,170
2016-10-12T13:23:19.852Z,165
2016-10-12T13:24:19.810Z,175
2016-10-12T13:25:19.483Z,180
2016-10-12T13:26:19.739Z,185
2016-10-12T13:27:19.403Z,190
2016-10-12T13:28:19.068Z,180
2016-10-12T13:29:19.332Z,180
2016-10-12T13:30:19.604Z,170
2016-10-12T13:31:19.565Z,175
2016-10-12T13:32:19.538Z,170
2016-10-12T13:33:19.505Z,175
2016-10-12T13:34:18.863Z,190
2016-10-12T13:35:19.142Z,195
2016-10-12T13:36:19.396Z,205
2016-10-12T13:37:18.453Z,215
2016-10-12T13:38:19.320Z,225
2016-10-12T13:39:18.991Z,225
2016-10-12T13:40:19.249Z,230
2016-10-12T13:41:19.218Z,235
2016-10-12T13:42:18.881Z,230
2016-10-12T13:43:18.854Z,215
2016-10-12T13:44:19.116Z,200
2016-10-12T13:45:18.479Z,195
2016-10-12T13:46:18.440Z,185
2016-10-12T13:47:18.407Z,175
2016-10-12T13:48:18.676Z,170
2016-10-12T13:49:18.948Z,170
2016-10-12T13:50:18.299Z,165
2016-10-12T13:51:18.579Z,165
2016-10-12T13:52:18.537Z,170
2016-10-12T13:53:18.497Z,185
2016-10-12T13:54:18.467Z,190
2016-10-12T13:55:18.435Z,190
2016-10-12T13:56:18.699Z,190
2016-10-12T13:57:18.669Z,195
2016-10-12T13:58:18.350Z,190
2016-10-12T13:59:18.289Z,170
2016-10-12T14:00:18.254Z,170
2016-10-12T14:01:18.218Z,160
2016-10-12T14:02:18.496Z,145
2016-10-12T14:03:18.462Z,140
2016-10-12T14:04:18.118Z,130
2016-10-12T14:05:18.086Z,125
2016-10-12T14:06:18.348Z,130